createdAt,value
2022-08-12T00:00:19.989Z,51.96
2022-08-12T00:03:05.749Z,52.00
2022-08-12T00:06:04.499Z,52.14
2022-08-12T00:08:53.975Z,52.26
2022-08-12T00:11:40.157Z,52.50
2022-08-12T00:14:26.150Z,52.74
2022-08-12T00:17:12.210Z,52.67
2022-08-12T00:19:57.664Z,52.83
2022-08-12T00:22:43.399Z,52.86
2022-08-12T00:26:01.392Z,53.01
2022-08-12T00:28:35.886Z,52.71
2022-08-12T00:31:21.601Z,52.25
2022-08-12T00:34:07.300Z,52.22
2022-08-12T00:36:52.802Z,52.12
2022-08-12T00:39:39.057Z,52.39
2022-08-12T00:42:11.904Z,52.29
2022-08-12T00:44:44.682Z,52.42
2022-08-12T00:47:24.678Z,52.47
2022-08-12T00:49:55.827Z,52.33
2022-08-12T00:52:24.946Z,52.15
2022-08-12T00:54:54.964Z,52.37
2022-08-12T00:57:26.769Z,52.39
2022-08-12T00:59:57.026Z,52.59
2022-08-12T01:02:27.817Z,52.71
2022-08-12T01:05:15.580Z,53.11
2022-08-12T01:08:02.400Z,52.93
2022-08-12T01:10:50.948Z,53.25
2022-08-12T01:13:22.224Z,53.03
2022-08-12T01:15:53.420Z,53.10
2022-08-12T01:18:23.473Z,53.11
2022-08-12T01:21:04.858Z,52.84
2022-08-12T01:24:29.924Z,52.88
2022-08-12T01:26:56.597Z,52.85
2022-08-12T01:29:32.552Z,53.33
2022-08-12T01:32:08.626Z,53.71
2022-08-12T01:34:38.919Z,53.70
2022-08-12T01:37:09.749Z,54.01
2022-08-12T01:40:35.179Z,54.24
2022-08-12T01:42:47.047Z,54.92
2022-08-12T01:45:17.626Z,55.08
2022-08-12T01:47:57.480Z,54.83
2022-08-12T01:50:33.344Z,55.04
2022-08-12T01:53:08.287Z,54.84
2022-08-12T01:55:39.132Z,55.39
2022-08-12T01:58:26.878Z,55.15
2022-08-12T02:00:59.348Z,54.91
2022-08-12T02:04:03.237Z,54.83
2022-08-12T02:06:54.990Z,54.75
2022-08-12T02:10:01.364Z,54.56
2022-08-12T02:12:43.444Z,54.71
2022-08-12T02:15:26.008Z,54.41
2022-08-12T02:18:04.907Z,54.73
2022-08-12T02:20:51.273Z,54.45
2022-08-12T02:23:25.645Z,54.26
2022-08-12T02:25:57.106Z,54.02
2022-08-12T02:28:26.120Z,53.87
2022-08-12T02:30:56.259Z,53.74
2022-08-12T02:33:25.582Z,53.77
2022-08-12T02:35:55.583Z,54.19
2022-08-12T02:38:27.496Z,54.10
2022-08-12T02:40:58.762Z,54.16
2022-08-12T02:43:32.769Z,54.20
2022-08-12T02:46:10.472Z,54.51
2022-08-12T02:48:52.130Z,54.98
2022-08-12T02:51:23.937Z,55.60
2022-08-12T02:54:05.026Z,55.32
2022-08-12T02:56:38.688Z,55.81
2022-08-12T02:59:12.261Z,56.24
2022-08-12T03:01:48.467Z,57.19
2022-08-12T03:04:31.860Z,57.63
2022-08-12T03:07:10.540Z,57.88
2022-08-12T03:10:04.584Z,58.80
2022-08-12T03:12:48.968Z,59.50
2022-08-12T03:15:22.105Z,60.30
2022-08-12T03:18:27.058Z,61.18
2022-08-12T03:20:45.583Z,61.82
2022-08-12T03:23:23.102Z,62.04
2022-08-12T03:26:00.240Z,62.70
2022-08-12T03:28:47.930Z,62.46
2022-08-12T03:31:16.813Z,62.78
2022-08-12T03:34:02.408Z,63.37
2022-08-12T03:36:33.630Z,64.06
2022-08-12T03:39:35.359Z,64.43
2022-08-12T03:42:13.319Z,64.29
2022-08-12T03:45:04.589Z,64.76
2022-08-12T03:47:53.909Z,64.40
2022-08-12T03:50:41.156Z,64.83
2022-08-12T03:53:28.083Z,65.48
2022-08-12T03:56:13.734Z,65.87
2022-08-12T03:58:59.932Z,66.38
2022-08-12T04:01:28.362Z,67.47
2022-08-12T04:03:57.749Z,68.22
2022-08-12T04:06:34.917Z,68.66
2022-08-12T04:09:14.814Z,67.82
2022-08-12T04:12:02.970Z,66.83
2022-08-12T04:14:31.318Z,66.95
2022-08-12T04:16:59.650Z,67.02
2022-08-12T04:19:28.953Z,67.51
2022-08-12T04:22:02.358Z,67.74
2022-08-12T04:24:35.357Z,67.78
2022-08-12T04:27:05.593Z,68.29
2022-08-12T04:30:32.968Z,68.51
2022-08-12T04:32:23.146Z,68.11
2022-08-12T04:34:52.287Z,68.54
2022-08-12T04:37:21.919Z,69.52
2022-08-12T04:39:51.049Z,69.85
2022-08-12T04:42:20.213Z,69.77
2022-08-12T04:44:48.569Z,70.54
2022-08-12T04:47:17.999Z,70.26
2022-08-12T04:49:48.332Z,69.74
2022-08-12T04:52:16.863Z,70.45
2022-08-12T04:54:47.781Z,70.80
2022-08-12T04:57:16.090Z,71.29
2022-08-12T04:59:48.259Z,71.55
2022-08-12T05:02:22.117Z,71.51
2022-08-12T05:04:52.812Z,71.38
2022-08-12T05:07:21.165Z,71.86
2022-08-12T05:09:59.804Z,71.94
2022-08-12T05:12:36.682Z,71.53
2022-08-12T05:15:19.121Z,70.69
2022-08-12T05:17:55.767Z,69.65
2022-08-12T05:20:26.240Z,69.04
2022-08-12T05:23:12.713Z,68.48
2022-08-12T05:25:44.240Z,68.07
2022-08-12T05:28:14.165Z,68.10
2022-08-12T05:30:44.674Z,68.66
2022-08-12T05:33:15.708Z,69.04
2022-08-12T05:35:45.656Z,69.04
2022-08-12T05:38:34.258Z,68.71
2022-08-12T05:41:06.334Z,67.98
2022-08-12T05:43:35.461Z,68.80
2022-08-12T05:46:03.541Z,68.51
2022-08-12T05:48:32.550Z,68.10
2022-08-12T05:51:00.711Z,67.98
2022-08-12T05:53:28.907Z,68.56
2022-08-12T05:55:57.065Z,67.55
2022-08-12T05:58:26.639Z,67.35
2022-08-12T06:00:56.883Z,67.28
2022-08-12T06:03:26.073Z,66.86
2022-08-12T06:05:56.273Z,65.21
2022-08-12T06:08:25.799Z,64.90
2022-08-12T06:10:54.375Z,64.88
2022-08-12T06:13:28.260Z,64.39
2022-08-12T06:16:14.584Z,65.36
2022-08-12T06:18:43.859Z,64.84
2022-08-12T06:21:14.268Z,65.19
2022-08-12T06:23:43.046Z,66.27
2022-08-12T06:26:13.141Z,66.33
2022-08-12T06:28:42.142Z,65.72
2022-08-12T06:31:25.697Z,63.99
2022-08-12T06:34:52.766Z,62.35
2022-08-12T06:36:44.311Z,61.81
2022-08-12T06:39:14.604Z,60.84
2022-08-12T06:42:04.877Z,61.19
2022-08-12T06:44:50.700Z,62.67
2022-08-12T06:47:22.159Z,61.77
2022-08-12T06:49:51.473Z,61.56
2022-08-12T06:52:21.660Z,60.48
2022-08-12T06:54:49.925Z,60.40
2022-08-12T06:58:04.477Z,59.99
2022-08-12T07:00:09.011Z,59.66
2022-08-12T07:02:38.604Z,59.27
2022-08-12T07:05:07.334Z,59.36
2022-08-12T07:07:39.792Z,59.60
2022-08-12T07:10:08.738Z,59.41
2022-08-12T07:12:37.189Z,58.71
2022-08-12T07:15:06.290Z,57.67
2022-08-12T07:17:37.757Z,57.47
2022-08-12T07:20:29.486Z,57.03
2022-08-12T07:23:00.658Z,56.65
2022-08-12T07:25:40.724Z,57.36
2022-08-12T07:28:16.302Z,57.91
2022-08-12T07:30:46.084Z,56.51
2022-08-12T07:33:16.884Z,56.09
2022-08-12T07:35:48.189Z,55.48
2022-08-12T07:38:29.058Z,54.68
2022-08-12T07:41:03.247Z,54.66
2022-08-12T07:43:35.509Z,54.88
2022-08-12T07:46:05.739Z,55.00
2022-08-12T07:48:38.249Z,55.11
2022-08-12T07:51:08.519Z,54.21
2022-08-12T07:53:51.989Z,54.65
2022-08-12T07:56:27.829Z,53.75
2022-08-12T07:58:59.155Z,53.49
2022-08-12T08:01:28.513Z,51.87
2022-08-12T08:04:18.823Z,51.38
2022-08-12T08:06:51.213Z,51.38
2022-08-12T08:09:22.393Z,49.90
2022-08-12T08:12:08.880Z,49.11
2022-08-12T08:14:37.414Z,48.80
2022-08-12T08:17:06.586Z,48.25
2022-08-12T08:20:01.823Z,48.29
2022-08-12T08:22:40.908Z,48.54
2022-08-12T08:25:35.287Z,48.01
2022-08-12T08:28:01.139Z,48.44
2022-08-12T08:30:30.444Z,48.10
2022-08-12T08:32:58.650Z,48.82
2022-08-12T08:35:32.828Z,47.88
2022-08-12T08:38:32.326Z,47.50
2022-08-12T08:42:15.895Z,47.84
2022-08-12T08:44:11.312Z,47.67
2022-08-12T08:46:40.157Z,47.98
2022-08-12T08:49:08.672Z,47.28
2022-08-12T08:51:37.808Z,47.60
2022-08-12T08:54:08.725Z,46.75
2022-08-12T08:56:44.010Z,46.88
2022-08-12T08:59:13.179Z,46.06
2022-08-12T09:01:44.398Z,46.41
2022-08-12T09:05:11.778Z,46.61
2022-08-12T09:07:17.118Z,46.38
2022-08-12T09:10:02.584Z,45.60
2022-08-12T09:15:41.592Z,45.15
2022-08-12T09:18:11.203Z,44.99
2022-08-12T09:20:42.544Z,44.40
2022-08-12T09:26:04.009Z,44.99
2022-08-12T09:28:37.149Z,45.27
2022-08-12T09:32:04.311Z,44.54
2022-08-12T09:34:27.909Z,44.21
2022-08-12T09:36:57.959Z,44.28
2022-08-12T09:40:05.757Z,44.10
2022-08-12T09:42:45.735Z,43.42
2022-08-12T09:46:11.050Z,42.78
2022-08-12T09:48:20.471Z,42.32
2022-08-12T09:50:55.628Z,41.94
2022-08-12T09:53:29.486Z,41.68
2022-08-12T09:56:58.210Z,41.59
2022-08-12T09:58:59.584Z,41.48
2022-08-12T10:01:34.651Z,41.04
2022-08-12T10:04:04.886Z,40.98
2022-08-12T10:06:36.051Z,41.50
2022-08-12T10:09:08.145Z,41.58
2022-08-12T10:12:11.589Z,41.34
2022-08-12T10:14:50.593Z,40.94
2022-08-12T10:17:23.499Z,40.43
2022-08-12T10:19:53.122Z,40.76
2022-08-12T10:22:36.722Z,40.93
2022-08-12T10:26:25.734Z,41.05
2022-08-12T10:28:33.509Z,40.74
2022-08-12T10:31:05.026Z,40.55
2022-08-12T10:33:54.953Z,40.30
2022-08-12T10:36:40.155Z,40.15
2022-08-12T10:40:00.731Z,39.43
2022-08-12T10:42:29.058Z,39.24
2022-08-12T10:45:01.175Z,39.53
2022-08-12T10:48:07.055Z,39.05
2022-08-12T10:50:29.684Z,39.50
2022-08-12T10:53:09.602Z,39.84
2022-08-12T10:55:37.737Z,39.19
2022-08-12T10:58:27.821Z,39.27
2022-08-12T11:01:48.831Z,39.76
2022-08-12T11:04:26.006Z,40.11
2022-08-12T11:07:06.647Z,39.29
2022-08-12T11:09:55.926Z,39.21
2022-08-12T11:12:55.066Z,39.17
2022-08-12T11:15:00.531Z,39.22
2022-08-12T11:17:52.477Z,39.30
2022-08-12T11:20:24.526Z,39.11
2022-08-12T11:23:03.964Z,38.85
2022-08-12T11:25:57.592Z,39.15
2022-08-12T11:28:34.843Z,40.06
2022-08-12T11:31:04.231Z,40.90
2022-08-12T11:34:06.678Z,40.65
2022-08-12T11:36:22.553Z,39.73
2022-08-12T11:38:51.363Z,39.21
2022-08-12T11:41:28.084Z,38.96
2022-08-12T11:44:12.647Z,39.33
2022-08-12T11:46:50.901Z,39.55
2022-08-12T11:49:31.579Z,39.07
2022-08-12T11:52:03.479Z,39.09
2022-08-12T11:54:32.254Z,39.20
2022-08-12T11:57:02.973Z,38.77
2022-08-12T12:02:38.497Z,39.12
2022-08-12T12:05:07.718Z,38.82
2022-08-12T12:08:38.417Z,38.63
2022-08-12T12:10:27.705Z,38.88
2022-08-12T12:12:55.795Z,38.85
2022-08-12T12:15:25.430Z,39.00
2022-08-12T12:18:22.458Z,39.12
2022-08-12T12:21:01.082Z,38.89
2022-08-12T12:23:36.202Z,39.33
2022-08-12T12:26:08.099Z,39.50
2022-08-12T12:28:41.506Z,39.29
2022-08-12T12:32:08.994Z,39.66
2022-08-12T12:34:12.405Z,39.14
2022-08-12T12:37:00.946Z,39.03
2022-08-12T12:39:54.652Z,38.57
2022-08-12T12:42:43.643Z,39.37
2022-08-12T12:45:19.078Z,38.78
2022-08-12T12:47:55.934Z,38.15
2022-08-12T12:50:35.347Z,37.69
2022-08-12T12:53:04.975Z,38.33
2022-08-12T12:55:35.975Z,38.19
2022-08-12T12:58:04.892Z,38.19
2022-08-12T13:00:33.919Z,38.43
2022-08-12T13:03:02.187Z,38.30
2022-08-12T13:05:42.173Z,38.13
2022-08-12T13:08:28.429Z,38.32
2022-08-12T13:11:07.721Z,37.43
2022-08-12T13:14:08.704Z,37.38
2022-08-12T13:16:29.370Z,38.03
2022-08-12T13:18:58.360Z,38.73
2022-08-12T13:21:36.666Z,38.86
2022-08-12T13:24:10.081Z,38.77
2022-08-12T13:26:40.727Z,39.13
2022-08-12T13:29:11.534Z,38.93
2022-08-12T13:31:46.500Z,39.26
2022-08-12T13:34:34.278Z,39.15
2022-08-12T13:37:09.183Z,39.35
2022-08-12T13:39:38.533Z,39.40
2022-08-12T13:42:13.570Z,39.50
2022-08-12T13:44:42.159Z,39.36
2022-08-12T13:47:19.537Z,40.02
2022-08-12T13:49:54.017Z,40.27
2022-08-12T13:52:24.171Z,40.36
2022-08-12T13:54:54.179Z,40.73
2022-08-12T13:57:46.949Z,40.79
2022-08-12T14:00:16.689Z,40.85
2022-08-12T14:02:44.971Z,40.52
2022-08-12T14:05:31.510Z,40.48
2022-08-12T14:08:06.117Z,40.59
2022-08-12T14:10:37.804Z,39.97
2022-08-12T14:14:02.540Z,39.60
2022-08-12T14:16:02.447Z,39.79
2022-08-12T14:18:33.096Z,40.58
2022-08-12T14:21:04.194Z,40.07
2022-08-12T14:24:05.129Z,40.47
2022-08-12T14:26:25.075Z,41.50
2022-08-12T14:29:02.086Z,42.24
2022-08-12T14:31:31.926Z,42.79
2022-08-12T14:34:04.779Z,42.63
2022-08-12T14:36:34.046Z,42.08
2022-08-12T14:39:06.517Z,41.77
2022-08-12T14:41:36.584Z,42.25
2022-08-12T14:44:59.389Z,42.34
2022-08-12T14:46:56.976Z,42.12
2022-08-12T14:50:33.417Z,42.01
2022-08-12T14:53:26.160Z,41.58
2022-08-12T14:58:00.721Z,41.99
2022-08-12T15:00:50.959Z,41.29
2022-08-12T15:03:23.331Z,41.50
2022-08-12T15:06:05.983Z,40.55
2022-08-12T15:08:41.155Z,40.69
2022-08-12T15:11:13.618Z,40.40
2022-08-12T15:13:45.483Z,40.46
2022-08-12T15:16:18.921Z,40.67
2022-08-12T15:18:55.111Z,40.56
2022-08-12T15:21:25.636Z,39.98
2022-08-12T15:24:13.698Z,39.94
2022-08-12T15:26:45.523Z,39.79
2022-08-12T15:29:14.835Z,40.00
2022-08-12T15:32:01.911Z,39.40
2022-08-12T15:34:33.903Z,39.60
2022-08-12T15:37:02.129Z,39.74
2022-08-12T15:39:30.226Z,39.92
2022-08-12T15:42:03.107Z,39.81
2022-08-12T15:44:38.191Z,39.85
2022-08-12T15:47:16.330Z,39.30
2022-08-12T15:49:59.625Z,39.43
2022-08-12T15:52:30.755Z,39.47
2022-08-12T15:55:05.127Z,39.59
2022-08-12T15:57:34.671Z,39.84
2022-08-12T16:00:07.494Z,39.27
2022-08-12T16:02:52.710Z,39.28
2022-08-12T16:06:12.663Z,39.64
2022-08-12T16:08:18.666Z,39.55
2022-08-12T16:10:53.124Z,39.88
2022-08-12T16:13:32.314Z,39.80
2022-08-12T16:16:12.265Z,40.20
2022-08-12T16:18:59.523Z,40.10
2022-08-12T16:21:52.531Z,40.13
2022-08-12T16:24:19.740Z,40.34
2022-08-12T16:26:51.583Z,40.40
2022-08-12T16:29:26.514Z,40.65
2022-08-12T16:32:07.485Z,40.72
2022-08-12T16:34:42.531Z,40.95
2022-08-12T16:38:05.012Z,41.52
2022-08-12T16:40:12.973Z,41.54
2022-08-12T16:42:53.624Z,41.48
2022-08-12T16:45:32.284Z,41.77
2022-08-12T16:48:35.277Z,41.79
2022-08-12T16:51:09.284Z,41.84
2022-08-12T16:53:44.057Z,41.93
2022-08-12T16:56:16.942Z,42.02
2022-08-12T16:58:47.245Z,42.53
2022-08-12T17:01:16.626Z,42.70
2022-08-12T17:03:51.974Z,42.58
2022-08-12T17:06:27.460Z,42.50
2022-08-12T17:09:02.758Z,42.30
2022-08-12T17:11:31.682Z,42.43
2022-08-12T17:14:01.742Z,42.48
2022-08-12T17:16:30.541Z,42.67
2022-08-12T17:19:03.198Z,42.49
2022-08-12T17:21:40.916Z,42.79
2022-08-12T17:24:30.039Z,42.77
2022-08-12T17:27:00.040Z,42.96
2022-08-12T17:30:00.245Z,43.10
2022-08-12T17:32:20.690Z,43.23
2022-08-12T17:35:14.202Z,43.50
2022-08-12T17:37:44.760Z,43.42
2022-08-12T17:40:19.375Z,43.62
2022-08-12T17:43:52.020Z,44.03
2022-08-12T17:45:54.134Z,44.13
2022-08-12T17:48:22.452Z,44.38
2022-08-12T17:51:07.137Z,44.50
2022-08-12T17:54:05.955Z,45.05
2022-08-12T17:56:31.974Z,44.68
2022-08-12T17:59:01.489Z,45.30
2022-08-12T18:01:34.718Z,45.46
2022-08-12T18:04:20.454Z,46.07
2022-08-12T18:06:50.962Z,46.49
2022-08-12T18:09:35.988Z,46.41
2022-08-12T18:12:24.487Z,46.54
2022-08-12T18:14:58.848Z,46.61
2022-08-12T18:17:27.473Z,46.46
2022-08-12T18:20:06.134Z,46.73
2022-08-12T18:22:40.961Z,46.81
2022-08-12T18:25:37.804Z,47.48
2022-08-12T18:28:16.462Z,47.67
2022-08-12T18:30:52.588Z,47.50
2022-08-12T18:33:25.497Z,47.63
2022-08-12T18:35:56.833Z,47.58
2022-08-12T18:38:27.035Z,47.55
2022-08-12T18:41:20.908Z,47.32
2022-08-12T18:43:59.128Z,47.32
2022-08-12T18:46:33.371Z,47.04
2022-08-12T18:49:17.170Z,46.91
2022-08-12T18:51:55.546Z,46.29
2022-08-12T18:54:32.296Z,46.05
2022-08-12T18:57:07.301Z,46.14
2022-08-12T19:00:01.273Z,46.58
2022-08-12T19:02:33.000Z,46.74
2022-08-12T19:05:09.506Z,46.40
2022-08-12T19:08:00.378Z,46.68
2022-08-12T19:10:31.936Z,46.96
2022-08-12T19:13:24.624Z,46.74
2022-08-12T19:15:57.468Z,46.16
2022-08-12T19:18:30.159Z,45.46
2022-08-12T19:21:11.620Z,45.53
2022-08-12T19:23:44.032Z,45.43
2022-08-12T19:26:12.474Z,45.20
2022-08-12T19:28:43.459Z,45.55
2022-08-12T19:31:56.660Z,46.09
2022-08-12T19:34:56.309Z,46.43
2022-08-12T19:37:20.320Z,46.78
2022-08-12T19:40:08.100Z,47.38
2022-08-12T19:42:44.304Z,47.16
2022-08-12T19:45:19.114Z,47.48
2022-08-12T19:47:50.355Z,47.82
2022-08-12T19:50:20.331Z,48.00
2022-08-12T19:52:51.151Z,48.93
2022-08-12T19:55:21.808Z,49.11
2022-08-12T19:58:02.894Z,48.85
2022-08-12T20:00:36.079Z,49.85
2022-08-12T20:03:06.434Z,51.05
2022-08-12T20:06:06.840Z,51.75
2022-08-12T20:08:31.409Z,52.17
2022-08-12T20:12:09.617Z,52.14
2022-08-12T20:14:00.283Z,52.36
2022-08-12T20:16:56.417Z,52.17
2022-08-12T20:19:28.636Z,52.37
2022-08-12T20:22:16.744Z,52.32
2022-08-12T20:24:55.411Z,52.43
2022-08-12T20:27:29.422Z,52.05
2022-08-12T20:30:15.177Z,52.47
2022-08-12T20:32:57.026Z,53.10
2022-08-12T20:36:06.883Z,52.39
2022-08-12T20:38:26.556Z,52.81
2022-08-12T20:40:56.165Z,52.42
2022-08-12T20:43:28.247Z,51.75
2022-08-12T20:46:00.272Z,51.64
2022-08-12T20:48:29.927Z,51.43
2022-08-12T20:51:04.342Z,51.31
2022-08-12T20:53:58.514Z,51.75
2022-08-12T20:56:31.220Z,51.63
2022-08-12T20:59:01.422Z,51.86
2022-08-12T21:01:46.125Z,52.07
2022-08-12T21:04:36.205Z,51.97
2022-08-12T21:07:09.501Z,52.27
2022-08-12T21:09:42.759Z,52.16
2022-08-12T21:12:27.549Z,52.22
2022-08-12T21:15:23.860Z,51.87
2022-08-12T21:18:11.568Z,51.14
2022-08-12T21:20:52.874Z,51.11
2022-08-12T21:23:22.797Z,51.08
2022-08-12T21:25:52.654Z,51.66
2022-08-12T21:28:27.414Z,52.39
2022-08-12T21:32:35.237Z,52.71
2022-08-12T21:34:06.485Z,52.42
2022-08-12T21:36:35.605Z,52.30
2022-08-12T21:39:18.544Z,52.53
2022-08-12T21:41:50.910Z,53.03
2022-08-12T21:44:24.244Z,53.28
2022-08-12T21:47:18.281Z,52.63
2022-08-12T21:50:06.894Z,52.04
2022-08-12T21:52:40.827Z,51.77
2022-08-12T21:55:18.762Z,51.04
2022-08-12T21:57:54.123Z,50.57
2022-08-12T22:00:35.056Z,50.52
2022-08-12T22:04:01.699Z,50.19
2022-08-12T22:06:30.502Z,49.95
2022-08-12T22:09:16.976Z,50.21
2022-08-12T22:11:49.335Z,50.27
2022-08-12T22:14:28.749Z,50.26
2022-08-12T22:16:58.746Z,50.09
2022-08-12T22:19:28.909Z,50.04
2022-08-12T22:22:04.758Z,49.83
2022-08-12T22:24:34.839Z,49.73
2022-08-12T22:27:08.056Z,49.87
2022-08-12T22:30:08.647Z,49.85
2022-08-12T22:32:41.811Z,50.63
2022-08-12T22:35:29.342Z,51.16
2022-08-12T22:38:10.853Z,51.68
2022-08-12T22:40:41.162Z,52.24
2022-08-12T22:43:29.576Z,52.54
2022-08-12T22:46:15.210Z,52.79
2022-08-12T22:48:50.192Z,53.26
2022-08-12T22:51:22.366Z,52.99
2022-08-12T22:53:54.908Z,53.82
2022-08-12T22:56:30.758Z,53.22
2022-08-12T22:59:02.692Z,53.82
2022-08-12T23:01:52.069Z,53.42
2022-08-12T23:04:27.666Z,53.61
2022-08-12T23:07:05.582Z,53.55
2022-08-12T23:09:48.109Z,54.18
2022-08-12T23:12:41.187Z,54.32
2022-08-12T23:15:14.204Z,54.04
2022-08-12T23:17:42.673Z,54.14
2022-08-12T23:20:13.027Z,54.37
2022-08-12T23:22:41.183Z,54.58
2022-08-12T23:25:20.886Z,54.01
2022-08-12T23:28:30.168Z,53.79
2022-08-12T23:31:04.240Z,54.27
2022-08-12T23:34:00.708Z,53.94
2022-08-12T23:36:31.595Z,54.31
2022-08-12T23:40:13.371Z,53.99
2022-08-12T23:42:17.610Z,54.50
2022-08-12T23:44:52.452Z,54.28
2022-08-12T23:47:22.709Z,54.26
2022-08-12T23:49:57.358Z,54.55
2022-08-12T23:52:28.450Z,54.68
2022-08-12T23:55:23.602Z,54.69
2022-08-12T23:58:21.340Z,55.01
